sensor_id;sensor_type;location;lat;lon;timestamp;P1;durP1;ratioP1;P2;durP2;ratioP2
71176;SDS011;58877;51.992;4.504;2022-07-23T00:01:19;1.76;;;1.76;;
71176;SDS011;58877;51.992;4.504;2022-07-23T00:03:45;1.76;;;1.76;;
71176;SDS011;58877;51.992;4.504;2022-07-23T00:06:11;1.83;;;1.83;;
71176;SDS011;58877;51.992;4.504;2022-07-23T00:08:37;2.18;;;2.18;;
71176;SDS011;58877;51.992;4.504;2022-07-23T00:11:02;1.96;;;1.96;;
71176;SDS011;58877;51.992;4.504;2022-07-23T00:13:28;2.00;;;2.00;;
71176;SDS011;58877;51.992;4.504;2022-07-23T00:15:54;2.12;;;2.12;;
71176;SDS011;58877;51.992;4.504;2022-07-23T00:18:20;2.02;;;2.02;;
71176;SDS011;58877;51.992;4.504;2022-07-23T00:20:46;2.39;;;2.39;;
71176;SDS011;58877;51.992;4.504;2022-07-23T00:23:11;2.32;;;2.32;;
71176;SDS011;58877;51.992;4.504;2022-07-23T00:25:37;2.07;;;2.07;;
71176;SDS011;58877;51.992;4.504;2022-07-23T00:28:03;2.33;;;2.33;;
71176;SDS011;58877;51.992;4.504;2022-07-23T00:30:29;2.27;;;2.27;;
71176;SDS011;58877;51.992;4.504;2022-07-23T00:32:57;2.38;;;2.38;;
71176;SDS011;58877;51.992;4.504;2022-07-23T00:35:25;2.28;;;2.28;;
71176;SDS011;58877;51.992;4.504;2022-07-23T00:37:53;2.46;;;2.45;;
71176;SDS011;58877;51.992;4.504;2022-07-23T00:40:19;2.36;;;2.36;;
71176;SDS011;58877;51.992;4.504;2022-07-23T00:42:45;2.42;;;2.42;;
71176;SDS011;58877;51.992;4.504;2022-07-23T00:45:10;2.31;;;2.31;;
71176;SDS011;58877;51.992;4.504;2022-07-23T00:47:36;2.58;;;2.58;;
71176;SDS011;58877;51.992;4.504;2022-07-23T00:50:06;2.48;;;2.48;;
71176;SDS011;58877;51.992;4.504;2022-07-23T00:52:34;2.38;;;2.38;;
71176;SDS011;58877;51.992;4.504;2022-07-23T00:55:00;2.61;;;2.61;;
71176;SDS011;58877;51.992;4.504;2022-07-23T00:57:26;2.54;;;2.54;;
71176;SDS011;58877;51.992;4.504;2022-07-23T00:59:52;2.69;;;2.69;;
71176;SDS011;58877;51.992;4.504;2022-07-23T01:02:18;2.39;;;2.39;;
71176;SDS011;58877;51.992;4.504;2022-07-23T01:04:43;2.72;;;2.72;;
71176;SDS011;58877;51.992;4.504;2022-07-23T01:07:09;2.72;;;2.72;;
71176;SDS011;58877;51.992;4.504;2022-07-23T01:09:38;2.62;;;2.62;;
71176;SDS011;58877;51.992;4.504;2022-07-23T01:12:03;2.85;;;2.85;;
71176;SDS011;58877;51.992;4.504;2022-07-23T01:14:30;2.73;;;2.73;;
71176;SDS011;58877;51.992;4.504;2022-07-23T01:16:55;2.86;;;2.86;;
71176;SDS011;58877;51.992;4.504;2022-07-23T01:19:21;2.84;;;2.84;;
71176;SDS011;58877;51.992;4.504;2022-07-23T01:21:47;2.90;;;2.90;;
71176;SDS011;58877;51.992;4.504;2022-07-23T01:24:16;3.10;;;3.10;;
71176;SDS011;58877;51.992;4.504;2022-07-23T01:26:45;3.24;;;3.24;;
71176;SDS011;58877;51.992;4.504;2022-07-23T01:29:12;2.71;;;2.71;;
71176;SDS011;58877;51.992;4.504;2022-07-23T01:31:39;2.87;;;2.87;;
71176;SDS011;58877;51.992;4.504;2022-07-23T01:34:05;3.00;;;3.00;;
71176;SDS011;58877;51.992;4.504;2022-07-23T01:36:32;2.93;;;2.93;;
71176;SDS011;58877;51.992;4.504;2022-07-23T01:39:02;2.88;;;2.88;;
71176;SDS011;58877;51.992;4.504;2022-07-23T01:41:29;2.79;;;2.79;;
71176;SDS011;58877;51.992;4.504;2022-07-23T01:43:55;2.92;;;2.92;;
71176;SDS011;58877;51.992;4.504;2022-07-23T01:46:21;2.50;;;2.50;;
71176;SDS011;58877;51.992;4.504;2022-07-23T01:48:47;2.94;;;2.94;;
71176;SDS011;58877;51.992;4.504;2022-07-23T01:51:14;2.39;;;2.39;;
71176;SDS011;58877;51.992;4.504;2022-07-23T01:53:40;2.61;;;2.61;;
71176;SDS011;58877;51.992;4.504;2022-07-23T01:56:05;2.44;;;2.44;;
71176;SDS011;58877;51.992;4.504;2022-07-23T01:58:31;2.56;;;2.56;;
71176;SDS011;58877;51.992;4.504;2022-07-23T02:00:57;2.56;;;2.56;;
71176;SDS011;58877;51.992;4.504;2022-07-23T02:03:23;2.48;;;2.48;;
71176;SDS011;58877;51.992;4.504;2022-07-23T02:05:49;2.49;;;2.49;;
71176;SDS011;58877;51.992;4.504;2022-07-23T02:08:15;2.56;;;2.56;;
71176;SDS011;58877;51.992;4.504;2022-07-23T02:10:41;2.49;;;2.49;;
71176;SDS011;58877;51.992;4.504;2022-07-23T02:13:07;2.62;;;2.62;;
71176;SDS011;58877;51.992;4.504;2022-07-23T02:15:33;2.64;;;2.64;;
71176;SDS011;58877;51.992;4.504;2022-07-23T02:17:59;2.49;;;2.49;;
71176;SDS011;58877;51.992;4.504;2022-07-23T02:20:25;2.73;;;2.73;;
71176;SDS011;58877;51.992;4.504;2022-07-23T02:22:50;2.67;;;2.67;;
71176;SDS011;58877;51.992;4.504;2022-07-23T02:25:16;2.37;;;2.37;;
71176;SDS011;58877;51.992;4.504;2022-07-23T02:27:42;2.34;;;2.34;;
71176;SDS011;58877;51.992;4.504;2022-07-23T02:30:08;2.51;;;2.51;;
71176;SDS011;58877;51.992;4.504;2022-07-23T02:32:34;2.66;;;2.66;;
71176;SDS011;58877;51.992;4.504;2022-07-23T02:35:00;2.98;;;2.98;;
71176;SDS011;58877;51.992;4.504;2022-07-23T02:37:27;2.74;;;2.74;;
71176;SDS011;58877;51.992;4.504;2022-07-23T02:39:52;2.64;;;2.64;;
71176;SDS011;58877;51.992;4.504;2022-07-23T02:42:39;2.89;;;2.89;;
71176;SDS011;58877;51.992;4.504;2022-07-23T02:45:05;2.39;;;2.39;;
71176;SDS011;58877;51.992;4.504;2022-07-23T02:47:31;2.77;;;2.77;;
71176;SDS011;58877;51.992;4.504;2022-07-23T02:49:57;2.84;;;2.84;;
71176;SDS011;58877;51.992;4.504;2022-07-23T02:52:23;3.16;;;3.16;;
71176;SDS011;58877;51.992;4.504;2022-07-23T02:54:48;3.22;;;3.22;;
71176;SDS011;58877;51.992;4.504;2022-07-23T02:57:14;3.16;;;3.16;;
71176;SDS011;58877;51.992;4.504;2022-07-23T02:59:39;3.12;;;3.12;;
71176;SDS011;58877;51.992;4.504;2022-07-23T03:02:05;3.07;;;3.07;;
71176;SDS011;58877;51.992;4.504;2022-07-23T03:04:31;3.12;;;3.12;;
71176;SDS011;58877;51.992;4.504;2022-07-23T03:06:56;2.98;;;2.98;;
71176;SDS011;58877;51.992;4.504;2022-07-23T03:09:22;3.01;;;3.01;;
71176;SDS011;58877;51.992;4.504;2022-07-23T03:11:48;3.16;;;3.16;;
71176;SDS011;58877;51.992;4.504;2022-07-23T03:14:13;3.09;;;3.09;;
71176;SDS011;58877;51.992;4.504;2022-07-23T03:16:43;3.10;;;3.10;;
71176;SDS011;58877;51.992;4.504;2022-07-23T03:19:09;3.07;;;3.07;;
71176;SDS011;58877;51.992;4.504;2022-07-23T03:21:35;3.08;;;3.08;;
71176;SDS011;58877;51.992;4.504;2022-07-23T03:24:05;2.78;;;2.78;;
71176;SDS011;58877;51.992;4.504;2022-07-23T03:26:32;2.59;;;2.59;;
71176;SDS011;58877;51.992;4.504;2022-07-23T03:28:57;2.99;;;2.99;;
71176;SDS011;58877;51.992;4.504;2022-07-23T03:31:23;2.87;;;2.87;;
71176;SDS011;58877;51.992;4.504;2022-07-23T03:33:49;2.74;;;2.74;;
71176;SDS011;58877;51.992;4.504;2022-07-23T03:36:15;3.05;;;3.05;;
71176;SDS011;58877;51.992;4.504;2022-07-23T03:38:43;2.91;;;2.91;;
71176;SDS011;58877;51.992;4.504;2022-07-23T03:41:09;3.03;;;3.03;;
71176;SDS011;58877;51.992;4.504;2022-07-23T03:43:35;3.16;;;3.16;;
71176;SDS011;58877;51.992;4.504;2022-07-23T03:46:00;3.34;;;3.34;;
71176;SDS011;58877;51.992;4.504;2022-07-23T03:48:26;3.37;;;3.37;;
71176;SDS011;58877;51.992;4.504;2022-07-23T03:50:52;3.24;;;3.24;;
71176;SDS011;58877;51.992;4.504;2022-07-23T03:53:18;3.19;;;3.19;;
71176;SDS011;58877;51.992;4.504;2022-07-23T03:55:43;3.55;;;3.55;;
71176;SDS011;58877;51.992;4.504;2022-07-23T03:58:09;3.43;;;3.43;;
71176;SDS011;58877;51.992;4.504;2022-07-23T04:00:35;3.66;;;3.66;;
71176;SDS011;58877;51.992;4.504;2022-07-23T04:03:00;3.27;;;3.27;;
71176;SDS011;58877;51.992;4.504;2022-07-23T04:05:26;3.24;;;3.24;;
71176;SDS011;58877;51.992;4.504;2022-07-23T04:07:52;3.24;;;3.24;;
71176;SDS011;58877;51.992;4.504;2022-07-23T04:10:19;3.28;;;3.28;;
71176;SDS011;58877;51.992;4.504;2022-07-23T04:12:45;3.25;;;3.25;;
71176;SDS011;58877;51.992;4.504;2022-07-23T04:15:11;2.84;;;2.84;;
71176;SDS011;58877;51.992;4.504;2022-07-23T04:17:37;3.34;;;3.34;;
71176;SDS011;58877;51.992;4.504;2022-07-23T04:20:04;3.75;;;3.75;;
71176;SDS011;58877;51.992;4.504;2022-07-23T04:22:30;3.67;;;3.67;;
71176;SDS011;58877;51.992;4.504;2022-07-23T04:24:55;3.77;;;3.77;;
71176;SDS011;58877;51.992;4.504;2022-07-23T04:27:24;3.70;;;3.69;;
71176;SDS011;58877;51.992;4.504;2022-07-23T04:29:50;3.53;;;3.53;;
71176;SDS011;58877;51.992;4.504;2022-07-23T04:32:15;4.17;;;4.17;;
71176;SDS011;58877;51.992;4.504;2022-07-23T04:34:41;3.86;;;3.86;;
71176;SDS011;58877;51.992;4.504;2022-07-23T04:37:06;4.03;;;4.03;;
71176;SDS011;58877;51.992;4.504;2022-07-23T04:39:32;3.96;;;3.96;;
71176;SDS011;58877;51.992;4.504;2022-07-23T04:41:57;4.14;;;4.14;;
71176;SDS011;58877;51.992;4.504;2022-07-23T04:44:23;4.35;;;4.35;;
71176;SDS011;58877;51.992;4.504;2022-07-23T04:46:49;4.16;;;4.16;;
71176;SDS011;58877;51.992;4.504;2022-07-23T04:49:14;4.18;;;4.18;;
71176;SDS011;58877;51.992;4.504;2022-07-23T04:51:43;4.42;;;4.42;;
71176;SDS011;58877;51.992;4.504;2022-07-23T04:54:09;4.10;;;4.10;;
71176;SDS011;58877;51.992;4.504;2022-07-23T04:56:35;4.31;;;4.30;;
71176;SDS011;58877;51.992;4.504;2022-07-23T04:59:00;4.53;;;4.53;;
71176;SDS011;58877;51.992;4.504;2022-07-23T05:01:26;4.36;;;4.36;;
71176;SDS011;58877;51.992;4.504;2022-07-23T05:03:51;4.24;;;4.24;;
71176;SDS011;58877;51.992;4.504;2022-07-23T05:06:18;4.10;;;4.10;;
71176;SDS011;58877;51.992;4.504;2022-07-23T05:08:44;3.86;;;3.86;;
71176;SDS011;58877;51.992;4.504;2022-07-23T05:14:05;4.11;;;4.08;;
71176;SDS011;58877;51.992;4.504;2022-07-23T05:16:31;4.21;;;4.21;;
71176;SDS011;58877;51.992;4.504;2022-07-23T05:18:57;4.24;;;4.24;;
71176;SDS011;58877;51.992;4.504;2022-07-23T05:21:23;4.27;;;4.27;;
71176;SDS011;58877;51.992;4.504;2022-07-23T05:23:49;4.30;;;4.30;;
71176;SDS011;58877;51.992;4.504;2022-07-23T05:26:15;4.51;;;4.51;;
71176;SDS011;58877;51.992;4.504;2022-07-23T05:28:43;4.03;;;4.03;;
71176;SDS011;58877;51.992;4.504;2022-07-23T05:31:09;4.10;;;4.10;;
71176;SDS011;58877;51.992;4.504;2022-07-23T05:33:37;4.17;;;4.17;;
71176;SDS011;58877;51.992;4.504;2022-07-23T05:36:03;4.28;;;4.28;;
71176;SDS011;58877;51.992;4.504;2022-07-23T05:38:30;4.47;;;4.47;;
71176;SDS011;58877;51.992;4.504;2022-07-23T05:40:57;4.19;;;4.19;;
71176;SDS011;58877;51.992;4.504;2022-07-23T05:43:26;4.50;;;4.50;;
71176;SDS011;58877;51.992;4.504;2022-07-23T05:45:54;4.26;;;4.26;;
71176;SDS011;58877;51.992;4.504;2022-07-23T05:48:20;4.58;;;4.58;;
71176;SDS011;58877;51.992;4.504;2022-07-23T05:50:46;4.35;;;4.35;;
71176;SDS011;58877;51.992;4.504;2022-07-23T05:53:12;4.18;;;4.18;;
71176;SDS011;58877;51.992;4.504;2022-07-23T05:55:41;4.27;;;4.27;;
71176;SDS011;58877;51.992;4.504;2022-07-23T05:58:13;4.52;;;4.52;;
71176;SDS011;58877;51.992;4.504;2022-07-23T06:00:44;4.40;;;4.40;;
71176;SDS011;58877;51.992;4.504;2022-07-23T06:03:13;4.35;;;4.35;;
71176;SDS011;58877;51.992;4.504;2022-07-23T06:05:38;4.51;;;4.51;;
71176;SDS011;58877;51.992;4.504;2022-07-23T06:08:04;4.15;;;4.15;;
71176;SDS011;58877;51.992;4.504;2022-07-23T06:10:32;4.21;;;4.21;;
71176;SDS011;58877;51.992;4.504;2022-07-23T06:12:57;4.39;;;4.39;;
71176;SDS011;58877;51.992;4.504;2022-07-23T06:15:26;4.04;;;4.04;;
71176;SDS011;58877;51.992;4.504;2022-07-23T06:17:55;4.16;;;4.16;;
71176;SDS011;58877;51.992;4.504;2022-07-23T06:20:24;3.80;;;3.80;;
71176;SDS011;58877;51.992;4.504;2022-07-23T06:22:59;3.50;;;3.50;;
71176;SDS011;58877;51.992;4.504;2022-07-23T06:25:27;3.47;;;3.47;;
71176;SDS011;58877;51.992;4.504;2022-07-23T06:27:53;3.53;;;3.53;;
71176;SDS011;58877;51.992;4.504;2022-07-23T06:30:19;3.38;;;3.38;;
71176;SDS011;58877;51.992;4.504;2022-07-23T06:32:45;3.53;;;3.53;;
71176;SDS011;58877;51.992;4.504;2022-07-23T06:35:31;3.36;;;3.36;;
71176;SDS011;58877;51.992;4.504;2022-07-23T06:38:03;2.84;;;2.84;;
71176;SDS011;58877;51.992;4.504;2022-07-23T06:40:29;2.74;;;2.74;;
71176;SDS011;58877;51.992;4.504;2022-07-23T06:43:01;2.49;;;2.49;;
71176;SDS011;58877;51.992;4.504;2022-07-23T06:45:29;2.25;;;2.25;;
71176;SDS011;58877;51.992;4.504;2022-07-23T06:47:55;2.75;;;2.75;;
71176;SDS011;58877;51.992;4.504;2022-07-23T06:50:20;2.27;;;2.27;;
71176;SDS011;58877;51.992;4.504;2022-07-23T06:52:49;2.09;;;2.09;;
71176;SDS011;58877;51.992;4.504;2022-07-23T06:55:15;2.28;;;2.28;;
71176;SDS011;58877;51.992;4.504;2022-07-23T06:57:40;1.81;;;1.81;;
71176;SDS011;58877;51.992;4.504;2022-07-23T07:00:06;1.98;;;1.98;;
71176;SDS011;58877;51.992;4.504;2022-07-23T07:02:33;2.12;;;2.10;;
71176;SDS011;58877;51.992;4.504;2022-07-23T07:04:59;2.17;;;2.17;;
71176;SDS011;58877;51.992;4.504;2022-07-23T07:07:24;1.80;;;1.80;;
71176;SDS011;58877;51.992;4.504;2022-07-23T07:10:11;1.72;;;1.72;;
71176;SDS011;58877;51.992;4.504;2022-07-23T07:12:36;2.21;;;2.21;;
71176;SDS011;58877;51.992;4.504;2022-07-23T07:15:02;2.73;;;2.73;;
71176;SDS011;58877;51.992;4.504;2022-07-23T07:17:31;3.17;;;3.17;;
71176;SDS011;58877;51.992;4.504;2022-07-23T07:19:57;3.27;;;3.27;;
71176;SDS011;58877;51.992;4.504;2022-07-23T07:22:23;2.93;;;2.93;;
71176;SDS011;58877;51.992;4.504;2022-07-23T07:24:48;3.61;;;3.61;;
71176;SDS011;58877;51.992;4.504;2022-07-23T07:33:21;3.09;;;3.09;;
71176;SDS011;58877;51.992;4.504;2022-07-23T07:36:49;3.48;;;3.48;;
71176;SDS011;58877;51.992;4.504;2022-07-23T07:41:57;3.65;;;3.65;;
71176;SDS011;58877;51.992;4.504;2022-07-23T07:44:23;3.40;;;3.40;;
71176;SDS011;58877;51.992;4.504;2022-07-23T07:46:48;3.22;;;3.22;;
71176;SDS011;58877;51.992;4.504;2022-07-23T07:49:14;2.72;;;2.72;;
71176;SDS011;58877;51.992;4.504;2022-07-23T07:51:42;2.73;;;2.73;;
71176;SDS011;58877;51.992;4.504;2022-07-23T07:54:07;2.86;;;2.86;;
71176;SDS011;58877;51.992;4.504;2022-07-23T07:56:33;2.89;;;2.89;;
71176;SDS011;58877;51.992;4.504;2022-07-23T07:58:58;2.81;;;2.81;;
71176;SDS011;58877;51.992;4.504;2022-07-23T08:01:24;3.30;;;3.30;;
71176;SDS011;58877;51.992;4.504;2022-07-23T08:03:50;3.46;;;3.46;;
71176;SDS011;58877;51.992;4.504;2022-07-23T08:06:15;3.67;;;3.67;;
71176;SDS011;58877;51.992;4.504;2022-07-23T08:08:41;3.45;;;3.45;;
71176;SDS011;58877;51.992;4.504;2022-07-23T08:11:06;3.41;;;3.41;;
71176;SDS011;58877;51.992;4.504;2022-07-23T08:13:32;3.08;;;3.08;;
71176;SDS011;58877;51.992;4.504;2022-07-23T08:15:57;3.06;;;3.06;;
71176;SDS011;58877;51.992;4.504;2022-07-23T08:18:22;3.43;;;3.43;;
71176;SDS011;58877;51.992;4.504;2022-07-23T08:20:48;3.08;;;3.08;;
71176;SDS011;58877;51.992;4.504;2022-07-23T08:23:13;2.96;;;2.96;;
71176;SDS011;58877;51.992;4.504;2022-07-23T08:25:40;2.58;;;2.58;;
71176;SDS011;58877;51.992;4.504;2022-07-23T08:28:11;2.39;;;2.39;;
71176;SDS011;58877;51.992;4.504;2022-07-23T08:30:39;2.60;;;2.60;;
71176;SDS011;58877;51.992;4.504;2022-07-23T08:33:08;2.50;;;2.50;;
71176;SDS011;58877;51.992;4.504;2022-07-23T08:35:39;2.43;;;2.43;;
71176;SDS011;58877;51.992;4.504;2022-07-23T08:38:08;2.26;;;2.26;;
71176;SDS011;58877;51.992;4.504;2022-07-23T08:40:36;2.11;;;2.11;;
71176;SDS011;58877;51.992;4.504;2022-07-23T08:43:04;2.10;;;2.10;;
71176;SDS011;58877;51.992;4.504;2022-07-23T08:45:35;1.79;;;1.79;;
71176;SDS011;58877;51.992;4.504;2022-07-23T08:48:04;1.59;;;1.59;;
71176;SDS011;58877;51.992;4.504;2022-07-23T08:50:36;1.83;;;1.83;;
71176;SDS011;58877;51.992;4.504;2022-07-23T08:53:04;1.97;;;1.97;;
71176;SDS011;58877;51.992;4.504;2022-07-23T08:55:32;1.91;;;1.91;;
71176;SDS011;58877;51.992;4.504;2022-07-23T08:57:58;1.80;;;1.80;;
71176;SDS011;58877;51.992;4.504;2022-07-23T09:00:23;1.79;;;1.79;;
71176;SDS011;58877;51.992;4.504;2022-07-23T09:02:49;2.41;;;2.41;;
71176;SDS011;58877;51.992;4.504;2022-07-23T09:05:16;6.41;;;6.03;;
71176;SDS011;58877;51.992;4.504;2022-07-23T09:10:44;1.97;;;1.85;;
71176;SDS011;58877;51.992;4.504;2022-07-23T09:13:22;1.94;;;1.88;;
71176;SDS011;58877;51.992;4.504;2022-07-23T09:15:55;2.00;;;1.95;;
71176;SDS011;58877;51.992;4.504;2022-07-23T09:18:37;1.76;;;1.72;;
71176;SDS011;58877;51.992;4.504;2022-07-23T09:21:19;1.98;;;1.95;;
71176;SDS011;58877;51.992;4.504;2022-07-23T09:23:58;2.09;;;2.09;;
71176;SDS011;58877;51.992;4.504;2022-07-23T09:26:29;1.97;;;1.97;;
71176;SDS011;58877;51.992;4.504;2022-07-23T09:31:30;1.93;;;1.93;;
71176;SDS011;58877;51.992;4.504;2022-07-23T09:34:29;1.83;;;1.83;;
71176;SDS011;58877;51.992;4.504;2022-07-23T09:36:56;1.68;;;1.68;;
71176;SDS011;58877;51.992;4.504;2022-07-23T09:39:33;1.53;;;1.53;;
71176;SDS011;58877;51.992;4.504;2022-07-23T09:42:20;1.79;;;1.79;;
71176;SDS011;58877;51.992;4.504;2022-07-23T09:44:49;1.85;;;1.85;;
71176;SDS011;58877;51.992;4.504;2022-07-23T09:47:16;2.03;;;2.03;;
71176;SDS011;58877;51.992;4.504;2022-07-23T09:52:28;1.82;;;1.82;;
71176;SDS011;58877;51.992;4.504;2022-07-23T09:55:00;1.81;;;1.81;;
71176;SDS011;58877;51.992;4.504;2022-07-23T09:57:29;1.96;;;1.96;;
71176;SDS011;58877;51.992;4.504;2022-07-23T10:00:00;1.87;;;1.87;;
71176;SDS011;58877;51.992;4.504;2022-07-23T10:02:29;1.69;;;1.69;;
71176;SDS011;58877;51.992;4.504;2022-07-23T10:04:58;1.61;;;1.61;;
71176;SDS011;58877;51.992;4.504;2022-07-23T10:07:26;1.22;;;1.22;;
71176;SDS011;58877;51.992;4.504;2022-07-23T10:09:55;1.46;;;1.46;;
71176;SDS011;58877;51.992;4.504;2022-07-23T10:12:21;1.68;;;1.68;;
71176;SDS011;58877;51.992;4.504;2022-07-23T10:14:59;1.78;;;1.78;;
71176;SDS011;58877;51.992;4.504;2022-07-23T10:17:26;1.66;;;1.66;;
71176;SDS011;58877;51.992;4.504;2022-07-23T10:19:53;1.58;;;1.58;;
71176;SDS011;58877;51.992;4.504;2022-07-23T10:22:22;1.83;;;1.83;;
71176;SDS011;58877;51.992;4.504;2022-07-23T10:30:10;1.64;;;1.64;;
71176;SDS011;58877;51.992;4.504;2022-07-23T10:32:45;1.47;;;1.47;;
71176;SDS011;58877;51.992;4.504;2022-07-23T10:38:31;1.48;;;1.48;;
71176;SDS011;58877;51.992;4.504;2022-07-23T10:41:07;1.64;;;1.64;;
71176;SDS011;58877;51.992;4.504;2022-07-23T10:43:32;1.92;;;1.92;;
71176;SDS011;58877;51.992;4.504;2022-07-23T10:48:46;1.96;;;1.96;;
71176;SDS011;58877;51.992;4.504;2022-07-23T10:54:41;1.83;;;1.83;;
71176;SDS011;58877;51.992;4.504;2022-07-23T10:57:08;1.97;;;1.97;;
71176;SDS011;58877;51.992;4.504;2022-07-23T11:02:32;1.61;;;1.61;;
71176;SDS011;58877;51.992;4.504;2022-07-23T11:05:00;1.75;;;1.75;;
71176;SDS011;58877;51.992;4.504;2022-07-23T11:10:34;1.67;;;1.67;;
71176;SDS011;58877;51.992;4.504;2022-07-23T11:21:48;1.40;;;1.40;;
71176;SDS011;58877;51.992;4.504;2022-07-23T11:24:06;2.15;;;2.15;;
71176;SDS011;58877;51.992;4.504;2022-07-23T11:34:48;1.79;;;1.79;;
71176;SDS011;58877;51.992;4.504;2022-07-23T11:37:36;2.18;;;2.18;;
71176;SDS011;58877;51.992;4.504;2022-07-23T11:40:05;1.82;;;1.82;;
71176;SDS011;58877;51.992;4.504;2022-07-23T11:42:34;1.58;;;1.58;;
71176;SDS011;58877;51.992;4.504;2022-07-23T11:45:01;1.45;;;1.45;;
71176;SDS011;58877;51.992;4.504;2022-07-23T11:47:27;1.91;;;1.91;;
71176;SDS011;58877;51.992;4.504;2022-07-23T11:49:59;1.74;;;1.74;;
71176;SDS011;58877;51.992;4.504;2022-07-23T11:52:28;1.62;;;1.62;;
71176;SDS011;58877;51.992;4.504;2022-07-23T11:55:02;1.53;;;1.53;;
71176;SDS011;58877;51.992;4.504;2022-07-23T11:57:38;1.91;;;1.91;;
71176;SDS011;58877;51.992;4.504;2022-07-23T12:00:25;1.73;;;1.73;;
71176;SDS011;58877;51.992;4.504;2022-07-23T12:02:55;1.64;;;1.64;;
71176;SDS011;58877;51.992;4.504;2022-07-23T12:05:24;1.66;;;1.66;;
71176;SDS011;58877;51.992;4.504;2022-07-23T12:07:52;1.75;;;1.75;;
71176;SDS011;58877;51.992;4.504;2022-07-23T12:12:51;1.83;;;1.83;;
71176;SDS011;58877;51.992;4.504;2022-07-23T12:15:19;1.72;;;1.72;;
71176;SDS011;58877;51.992;4.504;2022-07-23T12:17:48;1.82;;;1.82;;
71176;SDS011;58877;51.992;4.504;2022-07-23T12:20:17;1.80;;;1.80;;
71176;SDS011;58877;51.992;4.504;2022-07-23T12:22:46;1.94;;;1.94;;
71176;SDS011;58877;51.992;4.504;2022-07-23T12:25:15;1.88;;;1.88;;
71176;SDS011;58877;51.992;4.504;2022-07-23T12:27:43;1.77;;;1.77;;
71176;SDS011;58877;51.992;4.504;2022-07-23T12:30:16;2.01;;;2.01;;
71176;SDS011;58877;51.992;4.504;2022-07-23T12:32:46;1.76;;;1.76;;
71176;SDS011;58877;51.992;4.504;2022-07-23T12:35:14;2.09;;;2.09;;
71176;SDS011;58877;51.992;4.504;2022-07-23T12:37:40;1.91;;;1.91;;
71176;SDS011;58877;51.992;4.504;2022-07-23T12:42:51;1.89;;;1.89;;
71176;SDS011;58877;51.992;4.504;2022-07-23T12:45:20;2.14;;;2.14;;
71176;SDS011;58877;51.992;4.504;2022-07-23T12:47:51;2.39;;;2.39;;
71176;SDS011;58877;51.992;4.504;2022-07-23T12:55:36;2.45;;;2.45;;
71176;SDS011;58877;51.992;4.504;2022-07-23T12:58:04;2.58;;;2.58;;
71176;SDS011;58877;51.992;4.504;2022-07-23T13:00:31;2.48;;;2.48;;
71176;SDS011;58877;51.992;4.504;2022-07-23T13:02:57;2.64;;;2.64;;
71176;SDS011;58877;51.992;4.504;2022-07-23T13:05:23;2.19;;;2.19;;
71176;SDS011;58877;51.992;4.504;2022-07-23T13:07:48;2.24;;;2.24;;
71176;SDS011;58877;51.992;4.504;2022-07-23T13:10:14;2.32;;;2.32;;
71176;SDS011;58877;51.992;4.504;2022-07-23T13:12:39;2.47;;;2.47;;
71176;SDS011;58877;51.992;4.504;2022-07-23T13:15:05;2.55;;;2.55;;
71176;SDS011;58877;51.992;4.504;2022-07-23T13:17:31;2.42;;;2.42;;
71176;SDS011;58877;51.992;4.504;2022-07-23T13:19:56;2.33;;;2.33;;
71176;SDS011;58877;51.992;4.504;2022-07-23T13:22:22;2.40;;;2.40;;
71176;SDS011;58877;51.992;4.504;2022-07-23T13:24:47;2.59;;;2.59;;
71176;SDS011;58877;51.992;4.504;2022-07-23T13:27:13;2.20;;;2.20;;
71176;SDS011;58877;51.992;4.504;2022-07-23T13:29:38;2.16;;;2.16;;
71176;SDS011;58877;51.992;4.504;2022-07-23T13:32:04;2.30;;;2.30;;
71176;SDS011;58877;51.992;4.504;2022-07-23T13:34:30;2.64;;;2.64;;
71176;SDS011;58877;51.992;4.504;2022-07-23T13:36:55;2.26;;;2.26;;
71176;SDS011;58877;51.992;4.504;2022-07-23T13:39:21;2.71;;;2.71;;
71176;SDS011;58877;51.992;4.504;2022-07-23T13:41:46;3.04;;;3.04;;
71176;SDS011;58877;51.992;4.504;2022-07-23T13:44:12;2.85;;;2.85;;
71176;SDS011;58877;51.992;4.504;2022-07-23T13:46:37;2.96;;;2.96;;
71176;SDS011;58877;51.992;4.504;2022-07-23T13:49:03;2.64;;;2.64;;
71176;SDS011;58877;51.992;4.504;2022-07-23T13:51:28;2.51;;;2.51;;
71176;SDS011;58877;51.992;4.504;2022-07-23T13:53:54;2.49;;;2.49;;
71176;SDS011;58877;51.992;4.504;2022-07-23T13:56:19;2.52;;;2.52;;
71176;SDS011;58877;51.992;4.504;2022-07-23T13:58:45;2.59;;;2.59;;
71176;SDS011;58877;51.992;4.504;2022-07-23T14:01:10;3.14;;;3.14;;
71176;SDS011;58877;51.992;4.504;2022-07-23T14:03:36;2.76;;;2.76;;
71176;SDS011;58877;51.992;4.504;2022-07-23T14:06:01;2.73;;;2.73;;
71176;SDS011;58877;51.992;4.504;2022-07-23T14:08:27;2.58;;;2.58;;
71176;SDS011;58877;51.992;4.504;2022-07-23T14:10:53;2.71;;;2.71;;
71176;SDS011;58877;51.992;4.504;2022-07-23T14:13:18;2.91;;;2.91;;
71176;SDS011;58877;51.992;4.504;2022-07-23T14:15:44;2.98;;;2.98;;
71176;SDS011;58877;51.992;4.504;2022-07-23T14:18:09;2.98;;;2.98;;
71176;SDS011;58877;51.992;4.504;2022-07-23T14:20:35;2.59;;;2.59;;
71176;SDS011;58877;51.992;4.504;2022-07-23T14:23:00;2.54;;;2.54;;
71176;SDS011;58877;51.992;4.504;2022-07-23T14:25:26;2.25;;;2.25;;
71176;SDS011;58877;51.992;4.504;2022-07-23T14:27:52;2.67;;;2.67;;
71176;SDS011;58877;51.992;4.504;2022-07-23T14:30:18;2.56;;;2.56;;
71176;SDS011;58877;51.992;4.504;2022-07-23T14:32:44;2.42;;;2.42;;
71176;SDS011;58877;51.992;4.504;2022-07-23T14:35:09;2.72;;;2.72;;
71176;SDS011;58877;51.992;4.504;2022-07-23T14:37:35;2.75;;;2.75;;
71176;SDS011;58877;51.992;4.504;2022-07-23T14:40:00;2.51;;;2.51;;
71176;SDS011;58877;51.992;4.504;2022-07-23T14:42:26;2.65;;;2.65;;
71176;SDS011;58877;51.992;4.504;2022-07-23T14:44:51;2.42;;;2.42;;
71176;SDS011;58877;51.992;4.504;2022-07-23T14:47:17;2.72;;;2.72;;
71176;SDS011;58877;51.992;4.504;2022-07-23T14:49:42;2.41;;;2.41;;
71176;SDS011;58877;51.992;4.504;2022-07-23T14:52:08;2.45;;;2.45;;
71176;SDS011;58877;51.992;4.504;2022-07-23T14:54:34;2.29;;;2.29;;
71176;SDS011;58877;51.992;4.504;2022-07-23T14:57:00;2.49;;;2.49;;
71176;SDS011;58877;51.992;4.504;2022-07-23T14:59:28;2.33;;;2.33;;
71176;SDS011;58877;51.992;4.504;2022-07-23T15:01:55;2.55;;;2.55;;
71176;SDS011;58877;51.992;4.504;2022-07-23T15:04:22;2.36;;;2.36;;
71176;SDS011;58877;51.992;4.504;2022-07-23T15:06:48;2.32;;;2.32;;
71176;SDS011;58877;51.992;4.504;2022-07-23T15:09:16;2.26;;;2.26;;
71176;SDS011;58877;51.992;4.504;2022-07-23T15:11:41;2.56;;;2.56;;
71176;SDS011;58877;51.992;4.504;2022-07-23T15:14:07;2.27;;;2.27;;
71176;SDS011;58877;51.992;4.504;2022-07-23T15:16:33;2.97;;;2.97;;
71176;SDS011;58877;51.992;4.504;2022-07-23T15:19:00;3.06;;;3.06;;
71176;SDS011;58877;51.992;4.504;2022-07-23T15:21:27;2.90;;;2.90;;
71176;SDS011;58877;51.992;4.504;2022-07-23T15:23:57;2.62;;;2.62;;
71176;SDS011;58877;51.992;4.504;2022-07-23T15:26:26;2.74;;;2.74;;
71176;SDS011;58877;51.992;4.504;2022-07-23T15:28:52;2.50;;;2.50;;
71176;SDS011;58877;51.992;4.504;2022-07-23T15:31:18;2.34;;;2.34;;
71176;SDS011;58877;51.992;4.504;2022-07-23T15:33:43;2.73;;;2.73;;
71176;SDS011;58877;51.992;4.504;2022-07-23T15:36:09;2.73;;;2.73;;
71176;SDS011;58877;51.992;4.504;2022-07-23T15:38:34;2.50;;;2.50;;
71176;SDS011;58877;51.992;4.504;2022-07-23T15:41:00;2.70;;;2.70;;
71176;SDS011;58877;51.992;4.504;2022-07-23T15:43:25;2.56;;;2.56;;
71176;SDS011;58877;51.992;4.504;2022-07-23T15:45:51;2.43;;;2.43;;
71176;SDS011;58877;51.992;4.504;2022-07-23T15:48:18;2.48;;;2.48;;
71176;SDS011;58877;51.992;4.504;2022-07-23T15:50:44;2.49;;;2.49;;
71176;SDS011;58877;51.992;4.504;2022-07-23T15:53:10;2.84;;;2.84;;
71176;SDS011;58877;51.992;4.504;2022-07-23T15:55:35;2.70;;;2.70;;
71176;SDS011;58877;51.992;4.504;2022-07-23T15:58:03;2.53;;;2.53;;